createdAt,value
2017-04-18T00:00:32.666Z,0
2017-04-18T00:01:13.207Z,0
2017-04-18T00:01:53.750Z,0
2017-04-18T00:02:34.296Z,0
2017-04-18T00:03:14.833Z,0
2017-04-18T00:03:55.368Z,0
2017-04-18T00:04:35.906Z,0
2017-04-18T00:05:16.513Z,0
2017-04-18T00:05:57.059Z,0
2017-04-18T00:06:37.587Z,0
2017-04-18T00:07:18.139Z,0
2017-04-18T00:07:58.658Z,0
2017-04-18T00:08:39.193Z,0
2017-04-18T00:09:19.725Z,0
2017-04-18T00:10:00.264Z,0
2017-04-18T00:10:40.813Z,0
2017-04-18T00:11:21.346Z,0
2017-04-18T00:12:01.879Z,0
2017-04-18T00:12:42.408Z,0
2017-04-18T00:13:22.936Z,0
2017-04-18T00:14:03.463Z,0
2017-04-18T00:14:43.988Z,0
2017-04-18T00:15:24.532Z,0
2017-04-18T00:16:05.085Z,0
2017-04-18T00:16:45.624Z,0
2017-04-18T00:17:26.154Z,0
2017-04-18T00:18:06.712Z,0
2017-04-18T00:18:47.247Z,0
2017-04-18T00:19:27.788Z,0
2017-04-18T00:20:08.323Z,0
2017-04-18T00:20:48.875Z,0
2017-04-18T00:21:29.437Z,0
2017-04-18T00:22:09.977Z,0
2017-04-18T00:22:50.526Z,0
2017-04-18T00:23:31.076Z,0
2017-04-18T00:24:11.630Z,0
2017-04-18T00:24:52.173Z,0
2017-04-18T00:25:32.725Z,0
2017-04-18T00:26:13.277Z,0
2017-04-18T00:26:53.815Z,0
2017-04-18T00:27:34.345Z,0
2017-04-18T00:28:14.910Z,0
2017-04-18T00:28:55.451Z,0
2017-04-18T00:29:36.003Z,0
2017-04-18T00:30:16.554Z,0
2017-04-18T00:30:57.103Z,0
2017-04-18T00:31:37.627Z,0
2017-04-18T00:32:18.166Z,0
2017-04-18T00:32:58.701Z,0
2017-04-18T00:33:39.237Z,0
2017-04-18T00:34:19.784Z,0
2017-04-18T00:35:00.336Z,0
2017-04-18T00:35:40.886Z,0
2017-04-18T00:36:21.438Z,0
2017-04-18T00:37:01.995Z,0
2017-04-18T00:37:42.560Z,0
2017-04-18T00:38:23.092Z,0
2017-04-18T00:39:03.645Z,0
2017-04-18T00:39:44.194Z,0
2017-04-18T00:40:24.741Z,0
2017-04-18T00:41:05.294Z,0
2017-04-18T00:41:45.830Z,0
2017-04-18T00:42:26.381Z,0
2017-04-18T00:43:06.938Z,0
2017-04-18T00:43:47.479Z,0
2017-04-18T00:44:28.022Z,0
2017-04-18T00:45:08.581Z,0
2017-04-18T00:45:49.117Z,0
2017-04-18T00:46:29.644Z,0
2017-04-18T00:47:10.175Z,0
2017-04-18T00:47:50.711Z,0
2017-04-18T00:48:31.249Z,0
2017-04-18T00:49:11.793Z,0
2017-04-18T00:49:52.323Z,0
2017-04-18T00:50:32.863Z,0
2017-04-18T00:51:13.400Z,0
2017-04-18T00:51:53.935Z,0
2017-04-18T00:52:34.464Z,0
2017-04-18T00:53:15.004Z,0
2017-04-18T00:53:55.542Z,0
2017-04-18T00:54:36.107Z,0
2017-04-18T00:55:16.680Z,0
2017-04-18T00:55:57.206Z,0
2017-04-18T00:56:37.739Z,0
2017-04-18T00:57:18.272Z,0
2017-04-18T00:57:58.811Z,0
2017-04-18T00:58:39.393Z,0
2017-04-18T00:59:19.934Z,0
2017-04-18T01:00:00.458Z,0
2017-04-18T01:00:40.986Z,0
2017-04-18T01:01:21.520Z,0
2017-04-18T01:02:02.086Z,0
2017-04-18T01:02:42.613Z,0
2017-04-18T01:03:23.149Z,0
2017-04-18T01:04:03.682Z,0
2017-04-18T01:04:44.217Z,0
2017-04-18T01:05:24.751Z,0
2017-04-18T01:06:05.284Z,0
2017-04-18T01:06:45.819Z,0
2017-04-18T01:07:26.364Z,0
2017-04-18T01:08:06.899Z,0
2017-04-18T01:08:47.438Z,0
2017-04-18T01:09:27.959Z,0
2017-04-18T01:10:08.501Z,0
2017-04-18T01:10:49.030Z,0
2017-04-18T01:11:29.566Z,0
2017-04-18T01:12:10.117Z,0
2017-04-18T01:12:50.633Z,0
2017-04-18T01:13:31.170Z,0
2017-04-18T01:14:11.705Z,0
2017-04-18T01:14:52.251Z,0
2017-04-18T01:15:32.778Z,0
2017-04-18T01:16:13.325Z,0
2017-04-18T01:16:53.859Z,0
2017-04-18T01:17:34.385Z,0
2017-04-18T01:18:14.921Z,0
2017-04-18T01:18:55.461Z,0
2017-04-18T01:19:36.001Z,0
2017-04-18T01:20:16.543Z,0
2017-04-18T01:20:57.077Z,0
2017-04-18T01:21:37.610Z,0
2017-04-18T01:22:18.165Z,0
2017-04-18T01:22:58.679Z,0
2017-04-18T01:23:39.223Z,0
2017-04-18T01:24:19.776Z,0
2017-04-18T01:25:00.309Z,0
2017-04-18T01:25:40.842Z,0
2017-04-18T01:26:21.383Z,0
2017-04-18T01:27:01.940Z,0
2017-04-18T01:27:42.476Z,0
2017-04-18T01:28:23.017Z,0
2017-04-18T01:29:03.569Z,0
2017-04-18T01:29:44.098Z,0
2017-04-18T01:30:24.632Z,0
2017-04-18T01:31:05.177Z,0
2017-04-18T01:31:45.735Z,0
2017-04-18T01:32:26.274Z,0
2017-04-18T01:33:06.813Z,0
2017-04-18T01:33:47.342Z,0
2017-04-18T01:34:27.881Z,0
2017-04-18T01:35:08.429Z,0
2017-04-18T01:35:48.960Z,0
2017-04-18T01:36:29.489Z,0
2017-04-18T01:37:10.025Z,0
2017-04-18T01:37:50.590Z,0
2017-04-18T01:38:31.138Z,0
2017-04-18T01:39:11.681Z,0
2017-04-18T01:39:52.230Z,0
2017-04-18T01:40:32.757Z,0
2017-04-18T01:41:13.307Z,0
2017-04-18T01:41:53.846Z,0
2017-04-18T01:42:34.380Z,0
2017-04-18T01:43:14.922Z,0
2017-04-18T01:43:55.466Z,0
2017-04-18T01:44:35.998Z,0
2017-04-18T01:45:16.530Z,0
2017-04-18T01:45:57.063Z,0
2017-04-18T01:46:37.608Z,0
2017-04-18T01:47:18.150Z,0
2017-04-18T01:47:58.677Z,0
2017-04-18T01:48:39.202Z,0
2017-04-18T01:49:19.739Z,0
2017-04-18T01:50:00.262Z,0
2017-04-18T01:50:40.785Z,0
2017-04-18T01:51:21.300Z,0
2017-04-18T01:52:01.838Z,0
2017-04-18T01:52:42.363Z,0
2017-04-18T01:53:22.912Z,0
2017-04-18T01:54:03.461Z,0
2017-04-18T01:54:43.987Z,0
2017-04-18T01:55:24.504Z,0
2017-04-18T01:56:05.026Z,0
2017-04-18T01:56:45.563Z,0
2017-04-18T01:57:26.090Z,0
2017-04-18T01:58:06.609Z,0
2017-04-18T01:58:47.146Z,0
2017-04-18T01:59:27.669Z,0
2017-04-18T02:00:08.193Z,0
2017-04-18T02:00:48.707Z,0
2017-04-18T02:01:29.242Z,0
2017-04-18T02:02:09.774Z,0
2017-04-18T02:02:50.316Z,0
2017-04-18T02:03:30.830Z,0
2017-04-18T02:04:11.357Z,0
2017-04-18T02:04:51.876Z,0
2017-04-18T02:05:32.396Z,0
2017-04-18T02:06:12.912Z,0
2017-04-18T02:06:53.446Z,0
2017-04-18T02:07:33.969Z,0
2017-04-18T02:08:14.471Z,0
2017-04-18T02:08:55.005Z,0
2017-04-18T02:09:35.536Z,0
2017-04-18T02:10:16.063Z,0
2017-04-18T02:10:56.598Z,0
2017-04-18T02:11:37.123Z,0
2017-04-18T02:12:17.646Z,0
2017-04-18T02:12:58.177Z,0
2017-04-18T02:13:38.705Z,0
2017-04-18T02:14:19.247Z,0
2017-04-18T02:14:59.757Z,0
2017-04-18T02:15:40.297Z,0
2017-04-18T02:16:20.823Z,0
2017-04-18T02:17:01.337Z,0
2017-04-18T02:17:41.858Z,0
2017-04-18T02:18:22.401Z,0
2017-04-18T02:19:02.917Z,0
2017-04-18T02:19:43.493Z,0
2017-04-18T02:20:24.029Z,0
2017-04-18T02:21:04.568Z,0
2017-04-18T02:21:45.095Z,0
2017-04-18T02:22:25.621Z,0
2017-04-18T02:23:06.178Z,0
2017-04-18T02:23:46.703Z,0
2017-04-18T02:24:27.223Z,0
2017-04-18T02:25:07.759Z,0
2017-04-18T02:25:48.257Z,0
2017-04-18T02:26:28.782Z,0
2017-04-18T02:27:09.304Z,0
2017-04-18T02:27:49.818Z,0
2017-04-18T02:28:30.326Z,0
2017-04-18T02:29:10.860Z,0
2017-04-18T02:29:51.372Z,0
2017-04-18T02:30:31.911Z,0
2017-04-18T02:31:12.444Z,0
2017-04-18T02:31:52.958Z,0
2017-04-18T02:32:33.479Z,0
2017-04-18T02:33:14.008Z,0
2017-04-18T02:33:54.531Z,0
2017-04-18T02:34:35.068Z,0
2017-04-18T02:35:15.598Z,0
2017-04-18T02:35:56.128Z,0
2017-04-18T02:36:36.665Z,0
2017-04-18T02:37:17.186Z,0
2017-04-18T02:37:57.729Z,0
2017-04-18T02:38:38.252Z,0
2017-04-18T02:39:18.776Z,0
2017-04-18T02:39:59.302Z,0
2017-04-18T02:40:39.826Z,0
2017-04-18T02:41:20.347Z,0
2017-04-18T02:42:00.878Z,0
2017-04-18T02:42:41.380Z,0
2017-04-18T02:43:21.900Z,0
2017-04-18T02:44:02.420Z,0
2017-04-18T02:44:42.938Z,0
2017-04-18T02:45:23.473Z,0
2017-04-18T02:46:03.991Z,0
2017-04-18T02:46:44.510Z,0
2017-04-18T02:47:25.032Z,0
2017-04-18T02:48:05.551Z,0
2017-04-18T02:48:46.072Z,0
2017-04-18T02:49:26.612Z,0
2017-04-18T02:50:07.136Z,0
2017-04-18T02:50:47.664Z,0
2017-04-18T02:51:28.195Z,0
2017-04-18T02:52:08.720Z,0
2017-04-18T02:52:49.242Z,0
2017-04-18T02:53:29.751Z,0
2017-04-18T02:54:10.270Z,0
2017-04-18T02:54:50.794Z,0
2017-04-18T02:55:31.336Z,0
2017-04-18T02:56:11.858Z,0
2017-04-18T02:56:52.374Z,0
2017-04-18T02:57:32.891Z,0
2017-04-18T02:58:13.426Z,0
2017-04-18T02:58:53.947Z,0
2017-04-18T02:59:34.476Z,0
2017-04-18T03:00:15.014Z,0
2017-04-18T03:00:55.544Z,0
2017-04-18T03:01:36.097Z,0
2017-04-18T03:02:16.604Z,0
2017-04-18T03:02:57.129Z,0
2017-04-18T03:03:38.030Z,0
2017-04-18T03:04:18.621Z,0
2017-04-18T03:04:59.538Z,0
2017-04-18T03:05:40.064Z,0
2017-04-18T03:06:20.601Z,0
2017-04-18T03:07:01.144Z,0
2017-04-18T03:07:41.678Z,0
2017-04-18T03:08:22.217Z,0
2017-04-18T03:09:02.758Z,0
2017-04-18T03:09:43.309Z,0
2017-04-18T03:10:23.836Z,0
2017-04-18T03:11:04.362Z,0
2017-04-18T03:11:44.905Z,0
2017-04-18T03:12:25.447Z,0
2017-04-18T03:13:05.978Z,0
2017-04-18T03:13:46.507Z,0
2017-04-18T03:14:27.039Z,0
2017-04-18T03:15:07.563Z,0
2017-04-18T03:15:48.112Z,0
2017-04-18T03:16:28.635Z,0
2017-04-18T03:17:09.170Z,0
2017-04-18T03:17:49.690Z,0
2017-04-18T03:18:30.221Z,0
2017-04-18T03:19:10.748Z,0
2017-04-18T03:19:51.277Z,0
2017-04-18T03:20:31.790Z,0
2017-04-18T03:21:12.320Z,0
2017-04-18T03:21:52.859Z,0
2017-04-18T03:22:33.377Z,0
2017-04-18T03:23:13.884Z,0
2017-04-18T03:23:54.441Z,0
2017-04-18T03:24:34.982Z,0
2017-04-18T03:25:15.502Z,0
2017-04-18T03:25:56.031Z,0
2017-04-18T03:26:36.550Z,0
2017-04-18T03:27:17.095Z,0
2017-04-18T03:27:57.653Z,0
2017-04-18T03:28:38.156Z,0
2017-04-18T03:29:18.678Z,0
2017-04-18T03:29:59.218Z,0
2017-04-18T03:30:39.721Z,0
2017-04-18T03:31:20.244Z,0
2017-04-18T03:32:00.780Z,0
2017-04-18T03:32:41.331Z,0
2017-04-18T03:33:21.858Z,0
2017-04-18T03:34:02.373Z,0
2017-04-18T03:34:42.903Z,0
2017-04-18T03:35:23.435Z,0
2017-04-18T03:36:03.964Z,0
2017-04-18T03:36:44.500Z,0
2017-04-18T03:37:25.027Z,0
2017-04-18T03:38:05.561Z,0
2017-04-18T03:38:46.113Z,0
2017-04-18T03:39:26.638Z,0
2017-04-18T03:40:07.152Z,0
2017-04-18T03:40:47.676Z,0
2017-04-18T03:41:28.243Z,0
2017-04-18T03:42:08.767Z,0
2017-04-18T03:42:49.319Z,0
2017-04-18T03:43:29.865Z,0
2017-04-18T03:44:10.386Z,0
2017-04-18T03:44:50.904Z,0
2017-04-18T03:45:31.441Z,0
2017-04-18T03:46:11.978Z,0
2017-04-18T03:46:52.518Z,0
2017-04-18T03:47:33.042Z,0
2017-04-18T03:48:13.592Z,0
2017-04-18T03:48:54.116Z,0
2017-04-18T03:49:34.644Z,0
2017-04-18T03:50:15.177Z,0
2017-04-18T03:50:55.721Z,0
2017-04-18T03:51:36.248Z,0
2017-04-18T03:52:16.785Z,0
2017-04-18T03:52:57.311Z,0
2017-04-18T03:53:37.838Z,0
2017-04-18T03:54:18.370Z,0
2017-04-18T03:54:58.908Z,0
2017-04-18T03:55:39.450Z,0
2017-04-18T03:56:19.993Z,0
2017-04-18T03:57:00.505Z,0
2017-04-18T03:57:41.041Z,0
2017-04-18T03:58:21.585Z,0
2017-04-18T03:59:02.127Z,0
2017-04-18T03:59:42.671Z,0
2017-04-18T04:00:23.192Z,0
2017-04-18T04:01:03.750Z,0
2017-04-18T04:01:44.277Z,0
2017-04-18T04:02:24.797Z,0
2017-04-18T04:03:05.337Z,0
2017-04-18T04:03:45.854Z,0
2017-04-18T04:04:26.364Z,0
2017-04-18T04:05:06.892Z,0
2017-04-18T04:05:47.456Z,0
2017-04-18T04:06:27.983Z,0
2017-04-18T04:07:08.563Z,0
2017-04-18T04:07:49.100Z,4
2017-04-18T04:08:29.668Z,4
2017-04-18T04:09:10.216Z,4
2017-04-18T04:09:50.748Z,0
2017-04-18T04:10:31.323Z,0
2017-04-18T04:11:11.848Z,0
2017-04-18T04:11:52.390Z,4
2017-04-18T04:12:32.947Z,4
2017-04-18T04:13:13.486Z,4
2017-04-18T04:13:54.059Z,4
2017-04-18T04:14:34.646Z,4
2017-04-18T04:15:15.163Z,4
2017-04-18T04:15:55.708Z,8
2017-04-18T04:16:36.252Z,8
2017-04-18T04:17:16.768Z,12
2017-04-18T04:17:57.297Z,12
2017-04-18T04:18:37.830Z,8
2017-04-18T04:19:18.352Z,8
2017-04-18T04:19:58.899Z,12
2017-04-18T04:20:39.436Z,12
2017-04-18T04:21:19.965Z,12
2017-04-18T04:22:00.483Z,16
2017-04-18T04:22:41.001Z,20
2017-04-18T04:23:21.536Z,20
2017-04-18T04:24:02.062Z,16
2017-04-18T04:24:42.600Z,16
2017-04-18T04:25:23.114Z,20
2017-04-18T04:26:03.649Z,20
2017-04-18T04:26:44.170Z,20
2017-04-18T04:27:24.684Z,20
2017-04-18T04:28:05.207Z,20
2017-04-18T04:28:45.750Z,16
2017-04-18T04:29:26.275Z,16
2017-04-18T04:30:06.800Z,20
2017-04-18T04:30:47.327Z,20
2017-04-18T04:31:27.867Z,20
2017-04-18T04:32:08.378Z,32
2017-04-18T04:32:48.903Z,36
2017-04-18T04:33:29.407Z,36
2017-04-18T04:34:09.943Z,32
2017-04-18T04:34:50.490Z,28
2017-04-18T04:35:31.004Z,32
2017-04-18T04:36:11.522Z,36
2017-04-18T04:36:52.061Z,40
2017-04-18T04:37:32.611Z,40
2017-04-18T04:38:13.252Z,40
2017-04-18T04:38:53.725Z,40
2017-04-18T04:39:34.263Z,40
2017-04-18T04:40:14.795Z,44
2017-04-18T04:40:55.334Z,48
2017-04-18T04:41:35.866Z,52
2017-04-18T04:42:16.409Z,60
2017-04-18T04:42:56.919Z,72
2017-04-18T04:43:37.452Z,80
2017-04-18T04:44:17.970Z,88
2017-04-18T04:44:58.511Z,84
2017-04-18T04:45:39.028Z,76
2017-04-18T04:46:19.555Z,76
2017-04-18T04:47:00.085Z,80
2017-04-18T04:47:40.602Z,76
2017-04-18T04:48:21.153Z,80
2017-04-18T04:49:01.681Z,84
2017-04-18T04:49:42.278Z,88
2017-04-18T04:50:22.812Z,80
2017-04-18T04:51:03.350Z,84
2017-04-18T04:51:43.898Z,100
2017-04-18T04:52:24.417Z,160
2017-04-18T04:53:04.946Z,192
2017-04-18T04:53:45.470Z,192
2017-04-18T04:54:25.990Z,220
2017-04-18T04:55:06.509Z,232
2017-04-18T04:55:47.043Z,272
2017-04-18T04:56:27.577Z,276
2017-04-18T04:57:08.105Z,276
2017-04-18T04:57:48.633Z,276
2017-04-18T04:58:29.166Z,272
2017-04-18T04:59:09.690Z,232
2017-04-18T04:59:50.206Z,200
2017-04-18T05:00:30.722Z,196
2017-04-18T05:01:11.245Z,212
2017-04-18T05:01:51.757Z,224
2017-04-18T05:02:32.287Z,204
2017-04-18T05:03:12.819Z,212
2017-04-18T05:03:53.350Z,248
2017-04-18T05:04:33.871Z,220
2017-04-18T05:05:14.387Z,224
2017-04-18T05:05:54.913Z,248
2017-04-18T05:06:35.438Z,224
2017-04-18T05:07:15.972Z,204
2017-04-18T05:07:56.508Z,176
2017-04-18T05:08:37.050Z,192
2017-04-18T05:09:17.574Z,208
2017-04-18T05:09:58.095Z,204
2017-04-18T05:10:38.617Z,204
2017-04-18T05:11:19.142Z,212
2017-04-18T05:11:59.683Z,240
2017-04-18T05:12:40.202Z,268
2017-04-18T05:13:20.731Z,292
2017-04-18T05:14:01.257Z,312
2017-04-18T05:14:41.776Z,312
2017-04-18T05:15:22.298Z,352
2017-04-18T05:16:02.815Z,392
2017-04-18T05:16:43.341Z,448
2017-04-18T05:17:23.854Z,448
2017-04-18T05:18:04.375Z,404
2017-04-18T05:18:44.887Z,408
2017-04-18T05:19:25.429Z,372
2017-04-18T05:20:05.958Z,340
2017-04-18T05:20:46.467Z,308
2017-04-18T05:21:26.983Z,288
2017-04-18T05:22:07.501Z,348
2017-04-18T05:22:48.015Z,384
2017-04-18T05:23:28.532Z,412
2017-04-18T05:24:09.072Z,432
2017-04-18T05:24:49.598Z,500
2017-04-18T05:25:30.129Z,532
2017-04-18T05:26:10.661Z,488
2017-04-18T05:26:51.183Z,500
2017-04-18T05:27:31.748Z,596
2017-04-18T05:28:12.248Z,640
2017-04-18T05:28:52.774Z,596
2017-04-18T05:29:33.311Z,564
2017-04-18T05:30:13.849Z,568
2017-04-18T05:30:54.363Z,500
2017-04-18T05:31:34.873Z,552
2017-04-18T05:32:15.400Z,616
2017-04-18T05:32:55.924Z,660
2017-04-18T05:33:36.452Z,640
2017-04-18T05:34:16.965Z,588
2017-04-18T05:34:57.500Z,652
2017-04-18T05:35:38.036Z,740
2017-04-18T05:36:18.546Z,968
2017-04-18T05:36:59.075Z,1128
2017-04-18T05:37:39.605Z,1120
2017-04-18T05:38:20.143Z,1012
2017-04-18T05:39:00.693Z,940
2017-04-18T05:39:41.257Z,996
2017-04-18T05:40:21.782Z,1076
2017-04-18T05:41:02.313Z,1104
2017-04-18T05:41:42.846Z,1080
2017-04-18T05:42:23.351Z,1148
2017-04-18T05:43:03.890Z,1268
2017-04-18T05:43:44.433Z,1092
2017-04-18T05:44:24.974Z,868
2017-04-18T05:45:05.505Z,844
2017-04-18T05:45:46.031Z,820
2017-04-18T05:46:26.552Z,796
2017-04-18T05:47:07.085Z,784
2017-04-18T05:47:47.612Z,752
2017-04-18T05:48:28.139Z,800
2017-04-18T05:49:08.655Z,780
2017-04-18T05:49:49.168Z,664
2017-04-18T05:50:29.679Z,556
2017-04-18T05:51:10.201Z,536
2017-04-18T05:51:50.900Z,608
2017-04-18T05:52:31.685Z,668
2017-04-18T05:53:12.218Z,696
2017-04-18T05:53:52.727Z,748
2017-04-18T05:54:33.246Z,748
2017-04-18T05:55:13.766Z,688
2017-04-18T05:55:54.280Z,752
2017-04-18T05:56:34.786Z,1008
2017-04-18T05:57:15.331Z,1104
2017-04-18T05:57:55.844Z,1076
2017-04-18T05:58:36.384Z,1060
2017-04-18T05:59:16.982Z,1052
2017-04-18T05:59:57.517Z,1032
2017-04-18T06:00:38.072Z,1024
2017-04-18T06:01:18.678Z,1048
2017-04-18T06:01:59.269Z,1016
2017-04-18T06:02:39.861Z,1068
2017-04-18T06:03:20.493Z,1100
2017-04-18T06:04:00.939Z,1120
2017-04-18T06:04:41.481Z,1060
2017-04-18T06:05:22.158Z,1176
2017-04-18T06:06:02.632Z,1284
2017-04-18T06:06:43.260Z,1392
2017-04-18T06:07:23.858Z,1492
2017-04-18T06:08:04.562Z,1596
2017-04-18T06:08:45.105Z,1596
2017-04-18T06:09:25.735Z,1580
2017-04-18T06:10:06.394Z,1536
2017-04-18T06:10:47.057Z,1480
2017-04-18T06:11:27.683Z,1420
2017-04-18T06:12:08.258Z,1476
2017-04-18T06:12:48.784Z,1476
2017-04-18T06:13:29.385Z,1404
2017-04-18T06:14:09.956Z,1316
2017-04-18T06:14:50.577Z,1252
2017-04-18T06:15:31.184Z,1352
2017-04-18T06:16:11.800Z,1428
2017-04-18T06:16:52.352Z,1536
2017-04-18T06:17:32.936Z,1604
2017-04-18T06:18:13.544Z,1536
2017-04-18T06:18:54.398Z,1532
2017-04-18T06:19:35.004Z,1576
2017-04-18T06:20:15.834Z,1536
2017-04-18T06:20:56.550Z,1244
2017-04-18T06:21:37.219Z,1100
2017-04-18T06:22:17.891Z,1096
2017-04-18T06:22:58.508Z,1092
2017-04-18T06:23:39.105Z,1144
2017-04-18T06:24:19.751Z,1080
2017-04-18T06:25:00.237Z,1008
2017-04-18T06:25:40.849Z,1008
2017-04-18T06:26:21.483Z,1248
2017-04-18T06:27:02.036Z,1516
2017-04-18T06:27:42.747Z,1276
2017-04-18T06:28:23.418Z,1080
2017-04-18T06:29:04.039Z,1044
2017-04-18T06:29:44.721Z,1124
2017-04-18T06:30:25.528Z,1308
2017-04-18T06:31:06.190Z,1568
2017-04-18T06:31:46.855Z,1860
2017-04-18T06:32:27.511Z,2092
2017-04-18T06:33:08.292Z,2228
2017-04-18T06:33:48.987Z,2164
2017-04-18T06:34:29.764Z,2076
2017-04-18T06:35:10.516Z,2052
2017-04-18T06:35:51.287Z,2324
2017-04-18T06:36:32.134Z,2532
2017-04-18T06:37:12.724Z,2588
2017-04-18T06:37:53.464Z,2580
2017-04-18T06:38:34.040Z,2552
2017-04-18T06:39:14.756Z,2672
2017-04-18T06:39:55.588Z,2820
2017-04-18T06:40:36.459Z,2784
2017-04-18T06:41:17.068Z,2676
2017-04-18T06:41:57.820Z,2548
2017-04-18T06:42:38.443Z,2360
2017-04-18T06:43:19.251Z,2308
2017-04-18T06:43:59.748Z,2356
2017-04-18T06:44:40.440Z,2472
2017-04-18T06:45:20.994Z,2648
2017-04-18T06:46:01.737Z,2736
2017-04-18T06:46:42.434Z,2752
2017-04-18T06:47:23.010Z,2760
2017-04-18T06:48:03.669Z,2628
2017-04-18T06:48:44.265Z,2668
2017-04-18T06:49:24.957Z,2784
2017-04-18T06:50:05.673Z,2780
2017-04-18T06:50:46.297Z,2836
2017-04-18T06:51:26.931Z,2932
2017-04-18T06:52:07.546Z,2936
2017-04-18T06:52:48.086Z,2860
2017-04-18T06:53:28.688Z,2968
2017-04-18T06:54:09.315Z,3068
2017-04-18T06:54:49.812Z,3224
2017-04-18T06:55:30.316Z,3368
2017-04-18T06:56:10.870Z,3476
2017-04-18T06:56:51.420Z,3592
2017-04-18T06:57:31.973Z,3596
2017-04-18T06:58:12.496Z,3596
2017-04-18T06:58:53.018Z,3520
2017-04-18T06:59:33.566Z,3468
2017-04-18T07:00:14.086Z,3492
2017-04-18T07:00:54.683Z,3424
2017-04-18T07:01:35.192Z,3744
2017-04-18T07:02:15.728Z,3988
2017-04-18T07:02:56.283Z,4252
2017-04-18T07:03:36.778Z,4632
2017-04-18T07:04:17.293Z,4780
2017-04-18T07:04:57.855Z,4672
2017-04-18T07:05:38.387Z,4684
2017-04-18T07:06:18.911Z,4916
2017-04-18T07:06:59.442Z,5448
2017-04-18T07:07:39.950Z,5616
2017-04-18T07:08:20.472Z,5608
2017-04-18T07:09:01.029Z,5384
2017-04-18T07:09:41.553Z,4768
2017-04-18T07:10:22.344Z,4180
2017-04-18T07:11:03.088Z,3784
2017-04-18T07:11:43.644Z,3336
2017-04-18T07:12:24.183Z,3276
2017-04-18T07:13:04.802Z,3372
2017-04-18T07:13:45.431Z,3644
2017-04-18T07:14:25.975Z,3764
2017-04-18T07:15:06.595Z,3948
2017-04-18T07:15:47.186Z,4136
2017-04-18T07:16:27.825Z,4580
2017-04-18T07:17:08.458Z,5088
2017-04-18T07:17:49.084Z,5420
2017-04-18T07:18:29.676Z,5332
2017-04-18T07:19:10.324Z,5556
2017-04-18T07:19:50.810Z,5820
2017-04-18T07:20:31.436Z,6124
2017-04-18T07:21:11.977Z,6192
2017-04-18T07:21:52.627Z,6500
2017-04-18T07:22:33.198Z,6396
2017-04-18T07:23:13.988Z,6912
2017-04-18T07:23:54.576Z,7020
2017-04-18T07:24:35.143Z,6896
2017-04-18T07:25:15.783Z,8712
2017-04-18T07:25:56.297Z,7148
2017-04-18T07:26:36.930Z,7568
2017-04-18T07:27:17.521Z,8464
2017-04-18T07:27:58.057Z,8500
2017-04-18T07:28:38.564Z,9260
2017-04-18T07:29:19.096Z,10152
2017-04-18T07:29:59.623Z,9884
2017-04-18T07:30:40.151Z,9152
2017-04-18T07:31:20.673Z,7428
2017-04-18T07:32:01.197Z,6896
2017-04-18T07:32:41.702Z,8588
2017-04-18T07:33:22.236Z,6540
2017-04-18T07:34:02.760Z,6932
2017-04-18T07:34:43.288Z,8536
2017-04-18T07:35:23.833Z,7252
2017-04-18T07:36:04.355Z,8084
2017-04-18T07:36:44.890Z,7468
2017-04-18T07:37:25.412Z,6544
2017-04-18T07:38:05.943Z,9072
2017-04-18T07:38:46.469Z,6872
2017-04-18T07:39:26.986Z,10916
2017-04-18T07:40:07.507Z,15972
2017-04-18T07:40:48.011Z,33024
2017-04-18T07:41:28.531Z,10732
2017-04-18T07:42:09.055Z,5112
2017-04-18T07:42:49.588Z,11148
2017-04-18T07:43:30.110Z,28704
2017-04-18T07:44:10.627Z,8280
2017-04-18T07:44:51.141Z,10168
2017-04-18T07:45:31.675Z,21120
2017-04-18T07:46:12.190Z,26304
2017-04-18T07:46:52.702Z,25888
2017-04-18T07:47:33.242Z,4868
2017-04-18T07:48:13.761Z,5316
2017-04-18T07:48:54.262Z,24768
2017-04-18T07:49:34.797Z,16256
2017-04-18T07:50:15.304Z,7940
2017-04-18T07:50:55.831Z,7852
2017-04-18T07:51:36.361Z,10400
2017-04-18T07:52:16.895Z,39904
2017-04-18T07:52:57.419Z,44384
2017-04-18T07:53:37.925Z,9368
2017-04-18T07:54:18.508Z,10516
2017-04-18T07:54:59.023Z,7824
2017-04-18T07:55:39.542Z,9360
2017-04-18T07:56:20.069Z,44032
2017-04-18T07:57:00.622Z,44992
2017-04-18T07:57:41.116Z,43680
2017-04-18T07:58:21.673Z,45088
2017-04-18T07:59:02.200Z,48160
2017-04-18T07:59:42.711Z,49248
2017-04-18T08:00:23.251Z,49568
2017-04-18T08:01:03.759Z,18816
2017-04-18T08:01:44.295Z,50848
2017-04-18T08:02:24.822Z,50048
2017-04-18T08:03:05.349Z,14332
2017-04-18T08:03:45.853Z,28864
2017-04-18T08:04:26.385Z,49536
2017-04-18T08:05:06.949Z,45760
2017-04-18T08:05:47.454Z,10092
2017-04-18T08:06:27.966Z,10708
2017-04-18T08:07:08.509Z,9712
2017-04-18T08:07:49.028Z,11564
2017-04-18T08:08:29.574Z,44512
2017-04-18T08:09:10.102Z,28576
2017-04-18T08:09:50.618Z,52576
2017-04-18T08:10:31.154Z,23648
2017-04-18T08:11:11.691Z,48736
2017-04-18T08:11:52.208Z,46304
2017-04-18T08:12:32.733Z,7376
2017-04-18T08:13:13.267Z,6388
2017-04-18T08:13:53.801Z,9120
2017-04-18T08:14:34.321Z,14968
2017-04-18T08:15:15.714Z,52288
2017-04-18T08:15:56.248Z,5268
2017-04-18T08:16:36.766Z,3648
2017-04-18T08:17:17.280Z,3048
2017-04-18T08:17:57.789Z,2900
2017-04-18T08:18:38.314Z,3208
2017-04-18T08:19:18.837Z,4028
2017-04-18T08:19:59.378Z,4292
2017-04-18T08:20:39.892Z,5188
2017-04-18T08:21:20.381Z,4984
2017-04-18T08:22:00.899Z,5776
2017-04-18T08:22:41.442Z,6116
2017-04-18T08:23:21.948Z,12016
2017-04-18T08:24:02.477Z,48032
2017-04-18T08:24:43.002Z,45440
2017-04-18T08:25:23.516Z,42048
2017-04-18T08:26:04.038Z,51552
2017-04-18T08:26:44.562Z,4720
2017-04-18T08:27:25.103Z,8964
2017-04-18T08:28:05.627Z,5004
2017-04-18T08:28:46.163Z,4008
2017-04-18T08:29:26.688Z,4324
2017-04-18T08:30:07.201Z,7636
2017-04-18T08:30:47.718Z,56960
2017-04-18T08:31:28.281Z,55904
2017-04-18T08:32:08.843Z,7528
2017-04-18T08:32:49.428Z,8312
2017-04-18T08:33:29.935Z,10240
2017-04-18T08:34:10.444Z,9028
2017-04-18T08:34:50.990Z,26240
2017-04-18T08:35:31.508Z,8856
2017-04-18T08:36:12.045Z,6428
2017-04-18T08:36:52.567Z,6428
2017-04-18T08:37:33.213Z,6632
2017-04-18T08:38:13.603Z,7004
2017-04-18T08:38:54.131Z,7596
2017-04-18T08:39:34.648Z,8568
2017-04-18T08:40:15.180Z,9996
2017-04-18T08:40:55.710Z,9748
2017-04-18T08:41:36.225Z,7068
2017-04-18T08:42:16.730Z,5860
2017-04-18T08:42:57.261Z,5512
2017-04-18T08:43:37.786Z,5736
2017-04-18T08:44:18.299Z,6420
2017-04-18T08:44:58.830Z,7952
2017-04-18T08:45:39.361Z,12244
2017-04-18T08:46:20.176Z,12516
2017-04-18T08:47:00.687Z,13472
2017-04-18T08:47:41.220Z,10544
2017-04-18T08:48:21.853Z,9348
2017-04-18T08:49:02.399Z,8576
2017-04-18T08:49:42.926Z,8684
2017-04-18T08:50:23.462Z,8460
2017-04-18T08:51:04.003Z,7716
2017-04-18T08:51:44.527Z,9228
2017-04-18T08:52:25.053Z,12100
2017-04-18T08:53:05.556Z,12480
2017-04-18T08:53:46.100Z,9660
2017-04-18T08:54:26.635Z,11720
2017-04-18T08:55:07.154Z,9724
2017-04-18T08:55:47.683Z,8052
2017-04-18T08:56:28.211Z,9708
2017-04-18T08:57:08.737Z,11272
2017-04-18T08:57:49.267Z,14900
2017-04-18T08:58:29.801Z,10752
2017-04-18T08:59:10.370Z,8084
2017-04-18T08:59:50.894Z,7028
2017-04-18T09:00:31.425Z,6892
2017-04-18T09:01:11.932Z,5856
2017-04-18T09:01:52.460Z,4800
2017-04-18T09:02:32.982Z,4288
2017-04-18T09:03:13.511Z,4168
2017-04-18T09:03:54.044Z,5016
2017-04-18T09:04:34.574Z,10760
2017-04-18T09:05:15.085Z,5076
2017-04-18T09:05:55.622Z,6288
2017-04-18T09:06:36.132Z,8884
2017-04-18T09:07:16.644Z,8496
2017-04-18T09:07:57.172Z,7636
2017-04-18T09:08:37.701Z,6892
2017-04-18T09:09:18.235Z,6236
2017-04-18T09:09:58.782Z,5896
2017-04-18T09:10:39.296Z,6220
2017-04-18T09:11:19.828Z,5936
2017-04-18T09:12:00.319Z,6076
2017-04-18T09:12:40.838Z,7572
2017-04-18T09:13:21.391Z,8936
2017-04-18T09:14:02.531Z,9980
2017-04-18T09:14:43.061Z,74048
2017-04-18T09:15:23.578Z,70816
2017-04-18T09:16:04.089Z,10864
2017-04-18T09:16:44.624Z,7488
2017-04-18T09:17:25.150Z,6276
2017-04-18T09:18:05.668Z,5204
2017-04-18T09:18:46.199Z,4580
2017-04-18T09:19:26.726Z,4088
2017-04-18T09:20:07.236Z,3432
2017-04-18T09:20:47.777Z,3064
2017-04-18T09:21:28.291Z,3548
2017-04-18T09:22:08.825Z,4768
2017-04-18T09:22:49.370Z,6832
2017-04-18T09:23:29.901Z,6912
2017-04-18T09:24:10.410Z,7324
2017-04-18T09:24:50.923Z,8292
2017-04-18T09:25:31.462Z,7960
2017-04-18T09:26:11.989Z,6420
2017-04-18T09:26:52.502Z,5984
2017-04-18T09:27:33.041Z,76896
2017-04-18T09:28:13.654Z,77920